createdAt,value
2022-11-26T00:00:51.878Z,6.70
2022-11-26T00:03:23.881Z,9.90
2022-11-26T00:05:57.312Z,7.57
2022-11-26T00:08:35.157Z,7.90
2022-11-26T00:11:11.409Z,7.37
2022-11-26T00:13:43.192Z,12.63
2022-11-26T00:16:15.707Z,10.27
2022-11-26T00:18:47.561Z,9.10
2022-11-26T00:21:25.729Z,11.47
2022-11-26T00:23:57.552Z,8.30
2022-11-26T00:26:29.489Z,7.50
2022-11-26T00:29:01.258Z,10.77
2022-11-26T00:31:33.075Z,6.07
2022-11-26T00:34:04.962Z,13.23
2022-11-26T00:36:36.786Z,6.90
2022-11-26T00:39:22.545Z,11.53
2022-11-26T00:41:54.372Z,5.13
2022-11-26T00:44:26.418Z,12.90
2022-11-26T00:46:58.165Z,6.13
2022-11-26T00:49:29.954Z,10.50
2022-11-26T00:52:01.918Z,9.00
2022-11-26T00:54:33.826Z,6.67
2022-11-26T00:57:05.544Z,6.33
2022-11-26T00:59:37.213Z,7.22
2022-11-26T01:02:10.530Z,6.47
2022-11-26T01:04:42.292Z,7.00
2022-11-26T01:07:14.071Z,7.43
2022-11-26T01:09:47.360Z,4.80
2022-11-26T01:12:19.034Z,10.57
2022-11-26T01:14:50.748Z,10.10
2022-11-26T01:17:22.541Z,4.87
2022-11-26T01:19:54.345Z,9.20
2022-11-26T01:22:26.030Z,6.90
2022-11-26T01:24:57.849Z,5.77
2022-11-26T01:27:29.549Z,5.77
2022-11-26T01:30:01.486Z,12.10
2022-11-26T01:32:33.280Z,12.37
2022-11-26T01:35:05.498Z,5.97
2022-11-26T01:37:37.339Z,14.87
2022-11-26T01:40:26.567Z,5.67
2022-11-26T01:43:24.435Z,5.00
2022-11-26T01:45:57.002Z,8.40
2022-11-26T01:48:30.467Z,10.30
2022-11-26T01:51:06.742Z,6.37
2022-11-26T01:54:00.684Z,7.37
2022-11-26T01:56:37.322Z,4.60
2022-11-26T01:59:15.814Z,8.73
2022-11-26T02:01:50.022Z,5.70
2022-11-26T02:04:28.404Z,6.27
2022-11-26T02:07:00.192Z,6.50
2022-11-26T02:09:32.550Z,4.33
2022-11-26T02:12:04.472Z,8.37
2022-11-26T02:14:40.844Z,15.53
2022-11-26T02:17:43.627Z,6.13
2022-11-26T02:20:33.972Z,9.90
2022-11-26T02:23:23.945Z,5.77
2022-11-26T02:26:14.389Z,7.40
2022-11-26T02:29:07.917Z,12.23
2022-11-26T02:31:39.993Z,9.90
2022-11-26T02:34:37.424Z,10.87
2022-11-26T02:37:42.658Z,8.80
2022-11-26T02:40:15.131Z,12.90
2022-11-26T02:42:46.830Z,9.40
2022-11-26T02:45:23.514Z,8.85
2022-11-26T02:47:59.069Z,9.00
2022-11-26T02:50:42.921Z,9.00
2022-11-26T02:53:17.549Z,7.63
2022-11-26T02:55:53.844Z,5.47
2022-11-26T02:58:25.636Z,10.60
2022-11-26T03:00:59.218Z,5.60
2022-11-26T03:03:40.437Z,6.00
2022-11-26T03:06:14.416Z,10.30
2022-11-26T03:08:46.240Z,7.03
2022-11-26T03:11:18.069Z,8.00
2022-11-26T03:13:49.897Z,6.50
2022-11-26T03:16:21.838Z,5.53
2022-11-26T03:18:53.642Z,10.67
2022-11-26T03:21:25.635Z,6.50
2022-11-26T03:23:57.320Z,6.17
2022-11-26T03:26:29.082Z,5.53
2022-11-26T03:29:00.749Z,9.33
2022-11-26T03:31:32.505Z,11.17
2022-11-26T03:34:04.188Z,7.27
2022-11-26T03:36:36.003Z,12.53
2022-11-26T03:39:07.874Z,11.35
2022-11-26T03:41:39.653Z,7.70
2022-11-26T03:44:12.734Z,9.80
2022-11-26T03:46:44.523Z,9.00
2022-11-26T03:49:16.454Z,7.93
2022-11-26T03:51:48.157Z,9.20
2022-11-26T03:54:19.883Z,9.23
2022-11-26T03:56:51.678Z,12.57
2022-11-26T03:59:24.342Z,7.27
2022-11-26T04:01:56.360Z,10.10
2022-11-26T04:04:28.209Z,8.90
2022-11-26T04:06:59.962Z,8.73
2022-11-26T04:09:31.769Z,6.90
2022-11-26T04:12:03.634Z,6.53
2022-11-26T04:14:35.475Z,6.77
2022-11-26T04:17:07.284Z,10.83
2022-11-26T04:19:38.973Z,7.07
2022-11-26T04:22:10.781Z,10.37
2022-11-26T04:24:42.582Z,9.83
2022-11-26T04:27:14.467Z,5.93
2022-11-26T04:29:46.190Z,5.20
2022-11-26T04:32:18.197Z,7.03
2022-11-26T04:34:49.962Z,9.17
2022-11-26T04:37:21.658Z,6.33
2022-11-26T04:39:53.379Z,6.10
2022-11-26T04:42:25.112Z,6.67
2022-11-26T04:44:56.821Z,15.33
2022-11-26T04:47:28.562Z,8.20
2022-11-26T04:50:00.565Z,6.30
2022-11-26T04:52:32.415Z,5.80
2022-11-26T04:55:04.746Z,6.43
2022-11-26T04:57:36.498Z,5.80
2022-11-26T05:00:09.269Z,6.30
2022-11-26T05:02:41.126Z,6.70
2022-11-26T05:05:13.325Z,8.47
2022-11-26T05:07:45.225Z,7.40
2022-11-26T05:10:17.171Z,11.63
2022-11-26T05:12:49.969Z,12.30
2022-11-26T05:15:21.705Z,10.00
2022-11-26T05:17:53.551Z,5.57
2022-11-26T05:20:25.418Z,5.57
2022-11-26T05:22:57.212Z,9.30
2022-11-26T05:25:29.029Z,8.52
2022-11-26T05:28:00.805Z,9.20
2022-11-26T05:30:33.019Z,11.10
2022-11-26T05:33:04.761Z,6.47
2022-11-26T05:35:37.919Z,7.73
2022-11-26T05:38:09.582Z,9.53
2022-11-26T05:40:41.324Z,7.00
2022-11-26T05:43:13.140Z,8.70
2022-11-26T05:45:44.895Z,12.13
2022-11-26T05:48:16.825Z,11.48
2022-11-26T05:50:53.185Z,9.47
2022-11-26T05:53:26.667Z,9.50
2022-11-26T05:55:58.770Z,10.30
2022-11-26T05:58:30.488Z,6.90
2022-11-26T06:01:08.491Z,7.23
2022-11-26T06:03:40.488Z,13.80
2022-11-26T06:06:12.282Z,6.83
2022-11-26T06:08:44.090Z,6.83
2022-11-26T06:11:15.932Z,7.30
2022-11-26T06:13:47.840Z,10.60
2022-11-26T06:16:19.835Z,9.83
2022-11-26T06:18:51.709Z,8.40
2022-11-26T06:21:23.455Z,7.23
2022-11-26T06:23:59.329Z,15.07
2022-11-26T06:26:31.601Z,18.83
2022-11-26T06:29:04.031Z,13.60
2022-11-26T06:31:36.957Z,13.13
2022-11-26T06:34:09.032Z,8.23
2022-11-26T06:36:40.738Z,7.70
2022-11-26T06:39:12.625Z,8.27
2022-11-26T06:41:44.334Z,7.67
2022-11-26T06:44:16.193Z,10.67
2022-11-26T06:46:47.997Z,7.80
2022-11-26T06:49:19.744Z,9.03
2022-11-26T06:51:51.402Z,9.03
2022-11-26T06:54:23.072Z,7.70
2022-11-26T06:56:54.741Z,7.20
2022-11-26T06:59:26.588Z,7.63
2022-11-26T07:01:58.506Z,10.33
2022-11-26T07:04:30.347Z,8.80
2022-11-26T07:07:02.059Z,7.13
2022-11-26T07:09:33.864Z,8.77
2022-11-26T07:12:05.848Z,16.03
2022-11-26T07:14:37.944Z,7.77
2022-11-26T07:17:09.923Z,9.07
2022-11-26T07:19:41.665Z,7.40
2022-11-26T07:22:13.493Z,6.80
2022-11-26T07:24:45.153Z,7.17
2022-11-26T07:27:16.879Z,8.73
2022-11-26T07:29:48.630Z,16.70
2022-11-26T07:32:20.324Z,11.20
2022-11-26T07:34:52.038Z,10.63
2022-11-26T07:37:23.709Z,10.50
2022-11-26T07:39:55.416Z,10.83
2022-11-26T07:42:31.010Z,9.37
2022-11-26T07:45:03.798Z,8.83
2022-11-26T07:47:35.703Z,11.60
2022-11-26T07:50:08.803Z,12.17
2022-11-26T07:52:40.556Z,9.10
2022-11-26T07:55:12.766Z,9.30
2022-11-26T07:57:44.644Z,14.43
2022-11-26T08:00:17.256Z,20.40
2022-11-26T08:02:48.985Z,21.65
2022-11-26T08:05:20.809Z,21.37
2022-11-26T08:07:52.623Z,22.33
2022-11-26T08:10:24.316Z,19.57
2022-11-26T08:12:56.070Z,15.60
2022-11-26T08:15:27.761Z,12.77
2022-11-26T08:17:59.521Z,11.80
2022-11-26T08:20:31.250Z,12.50
2022-11-26T08:23:03.130Z,13.70
2022-11-26T08:25:35.916Z,13.00
2022-11-26T08:28:08.955Z,11.70
2022-11-26T08:30:40.641Z,11.27
2022-11-26T08:33:12.429Z,14.20
2022-11-26T08:36:05.629Z,14.30
2022-11-26T08:38:36.262Z,10.40
2022-11-26T08:41:10.773Z,9.00
2022-11-26T08:44:05.783Z,10.70
2022-11-26T08:46:34.971Z,12.70
2022-11-26T08:49:08.447Z,12.13
2022-11-26T08:51:40.660Z,16.40
2022-11-26T08:54:12.619Z,16.40
2022-11-26T08:56:44.397Z,22.70
2022-11-26T08:59:17.496Z,34.03
2022-11-26T09:01:49.735Z,28.20
2022-11-26T09:04:21.501Z,34.47
2022-11-26T09:06:53.178Z,33.40
2022-11-26T09:09:25.236Z,27.97
2022-11-26T09:11:58.643Z,21.40
2022-11-26T09:14:35.842Z,27.20
2022-11-26T09:17:07.985Z,18.33
2022-11-26T09:19:39.639Z,16.48
2022-11-26T09:22:11.336Z,13.73
2022-11-26T09:24:43.100Z,18.33
2022-11-26T09:27:14.847Z,21.23
2022-11-26T09:29:46.598Z,14.67
2022-11-26T09:32:30.980Z,15.67
2022-11-26T09:35:05.927Z,13.37
2022-11-26T09:37:37.608Z,13.10
2022-11-26T09:40:16.865Z,12.23
2022-11-26T09:43:03.420Z,12.93
2022-11-26T09:45:43.288Z,12.43
2022-11-26T09:48:21.268Z,13.10
2022-11-26T09:51:01.788Z,12.30
2022-11-26T09:53:40.420Z,12.90
2022-11-26T09:56:21.472Z,11.00
2022-11-26T09:59:01.818Z,11.23
2022-11-26T10:01:34.550Z,11.50
2022-11-26T10:04:23.086Z,11.83
2022-11-26T10:07:28.469Z,11.57
2022-11-26T10:10:26.399Z,12.40
2022-11-26T10:13:20.236Z,11.75
2022-11-26T10:16:14.790Z,11.00
2022-11-26T10:18:55.487Z,9.90
2022-11-26T10:21:58.293Z,10.30
2022-11-26T10:24:41.989Z,8.90
2022-11-26T10:27:17.044Z,7.47
2022-11-26T10:29:58.804Z,8.93
2022-11-26T10:32:39.200Z,8.03
2022-11-26T10:35:16.573Z,6.73
2022-11-26T10:37:49.114Z,11.40
2022-11-26T10:40:31.983Z,5.43
2022-11-26T10:43:09.399Z,7.80
2022-11-26T10:45:41.154Z,5.20
2022-11-26T10:48:28.896Z,7.10
2022-11-26T10:51:03.571Z,7.30
2022-11-26T10:53:57.181Z,5.77
2022-11-26T10:56:35.986Z,7.80
2022-11-26T10:59:34.290Z,10.40
2022-11-26T11:02:48.285Z,8.53
2022-11-26T11:05:21.182Z,9.50
2022-11-26T11:07:54.779Z,10.07
2022-11-26T11:10:26.889Z,5.37
2022-11-26T11:13:01.731Z,4.33
2022-11-26T11:15:35.515Z,12.27
2022-11-26T11:18:13.282Z,9.30
2022-11-26T11:20:57.030Z,13.83
2022-11-26T11:24:00.239Z,10.67
2022-11-26T11:26:25.409Z,6.40
2022-11-26T11:28:58.200Z,4.83
2022-11-26T11:31:46.112Z,9.57
2022-11-26T11:34:38.207Z,8.37
2022-11-26T11:37:21.074Z,8.90
2022-11-26T11:40:17.552Z,6.83
2022-11-26T11:42:52.752Z,10.00
2022-11-26T11:45:59.449Z,5.60
2022-11-26T11:48:56.334Z,8.10
2022-11-26T11:52:15.314Z,6.23
2022-11-26T11:54:57.760Z,7.30
2022-11-26T11:58:06.429Z,4.50
2022-11-26T12:01:04.656Z,6.95
2022-11-26T12:04:08.864Z,5.87
2022-11-26T12:07:07.850Z,5.07
2022-11-26T12:10:02.324Z,11.93
2022-11-26T12:12:53.125Z,13.23
2022-11-26T12:15:29.738Z,5.40
2022-11-26T12:18:23.001Z,7.80
2022-11-26T12:21:01.494Z,5.10
2022-11-26T12:23:40.668Z,6.23
2022-11-26T12:26:18.997Z,4.87
2022-11-26T12:29:12.456Z,4.70
2022-11-26T12:31:49.902Z,5.00
2022-11-26T12:34:33.458Z,7.83
2022-11-26T12:37:21.010Z,4.20
2022-11-26T12:40:29.637Z,7.50
2022-11-26T12:43:33.945Z,6.37
2022-11-26T12:46:13.169Z,2.90
2022-11-26T12:49:14.872Z,6.80
2022-11-26T12:52:08.971Z,5.78
2022-11-26T12:55:13.862Z,3.40
2022-11-26T12:58:01.174Z,4.03
2022-11-26T13:00:37.677Z,4.43
2022-11-26T13:03:15.975Z,2.70
2022-11-26T13:05:51.830Z,6.03
2022-11-26T13:08:29.963Z,5.10
2022-11-26T13:11:32.824Z,6.17
2022-11-26T13:14:15.681Z,5.50
2022-11-26T13:16:56.825Z,9.60
2022-11-26T13:19:41.826Z,4.60
2022-11-26T13:22:44.904Z,10.77
2022-11-26T13:25:38.588Z,3.67
2022-11-26T13:28:44.085Z,7.40
2022-11-26T13:31:30.946Z,6.43
2022-11-26T13:34:11.429Z,5.20
2022-11-26T13:36:48.888Z,3.93
2022-11-26T13:39:39.509Z,7.53
2022-11-26T13:42:38.704Z,6.03
2022-11-26T13:45:34.147Z,5.00
2022-11-26T13:48:18.172Z,8.80
2022-11-26T13:50:59.666Z,7.13
2022-11-26T13:53:42.672Z,9.50
2022-11-26T13:56:16.201Z,6.40
2022-11-26T13:59:25.394Z,7.90
2022-11-26T14:02:19.890Z,8.93
2022-11-26T14:04:53.177Z,3.90
2022-11-26T14:07:25.095Z,7.57
2022-11-26T14:10:02.774Z,5.77
2022-11-26T14:13:07.914Z,3.50
2022-11-26T14:15:42.704Z,5.00
2022-11-26T14:18:17.000Z,6.83
2022-11-26T14:20:58.016Z,4.77
2022-11-26T14:23:43.496Z,10.50
2022-11-26T14:26:39.192Z,5.73
2022-11-26T14:29:13.789Z,5.67
2022-11-26T14:31:49.952Z,8.53
2022-11-26T14:34:39.056Z,6.07
2022-11-26T14:37:22.914Z,4.60
2022-11-26T14:39:59.856Z,6.17
2022-11-26T14:42:31.913Z,5.07
2022-11-26T14:45:18.345Z,7.57
2022-11-26T14:47:52.249Z,6.30
2022-11-26T14:50:25.156Z,4.37
2022-11-26T14:53:02.264Z,5.00
2022-11-26T14:55:34.832Z,6.33
2022-11-26T14:58:14.864Z,9.00
2022-11-26T15:01:02.750Z,7.77
2022-11-26T15:03:34.824Z,4.73
2022-11-26T15:06:06.993Z,3.97
2022-11-26T15:08:38.686Z,6.55
2022-11-26T15:11:11.871Z,8.90
2022-11-26T15:13:46.421Z,6.27
2022-11-26T15:16:54.220Z,10.83
2022-11-26T15:19:30.666Z,5.33
2022-11-26T15:22:18.312Z,4.10
2022-11-26T15:24:51.749Z,4.53
2022-11-26T15:27:51.669Z,5.30
2022-11-26T15:30:27.261Z,4.27
2022-11-26T15:33:14.120Z,4.53
2022-11-26T15:35:46.116Z,4.17
2022-11-26T15:38:20.419Z,4.43
2022-11-26T15:41:07.049Z,5.53
2022-11-26T15:43:44.247Z,8.53
2022-11-26T15:46:26.335Z,5.37
2022-11-26T15:49:04.075Z,18.07
2022-11-26T15:52:04.409Z,89.03
2022-11-26T15:57:51.222Z,37.17
2022-11-26T16:00:31.455Z,47.15
2022-11-26T16:03:04.797Z,55.60
2022-11-26T16:05:38.942Z,66.80
2022-11-26T16:08:25.766Z,31.23
2022-11-26T16:11:04.600Z,43.57
2022-11-26T16:13:36.588Z,88.20
2022-11-26T16:16:20.367Z,78.40
2022-11-26T16:18:59.310Z,125.47
2022-11-26T16:21:36.764Z,227.33
2022-11-26T16:24:39.127Z,116.03
2022-11-26T16:27:22.499Z,32.40
2022-11-26T16:29:54.251Z,22.93
2022-11-26T16:32:26.042Z,31.10
2022-11-26T16:34:57.729Z,29.00
2022-11-26T16:37:31.473Z,35.90
2022-11-26T16:40:13.386Z,23.90
2022-11-26T16:42:45.689Z,13.80
2022-11-26T16:45:18.594Z,17.00
2022-11-26T16:47:53.417Z,16.77
2022-11-26T16:50:27.437Z,15.27
2022-11-26T16:52:59.159Z,13.60
2022-11-26T16:55:31.188Z,14.87
2022-11-26T16:58:05.389Z,11.63
2022-11-26T17:00:37.233Z,16.77
2022-11-26T17:03:12.865Z,11.90
2022-11-26T17:05:46.061Z,8.17
2022-11-26T17:08:18.361Z,17.70
2022-11-26T17:10:51.216Z,8.77
2022-11-26T17:13:23.357Z,10.27
2022-11-26T17:15:55.849Z,16.40
2022-11-26T17:18:27.931Z,13.10
2022-11-26T17:20:59.969Z,22.80
2022-11-26T17:23:32.487Z,13.83
2022-11-26T17:26:21.959Z,12.00
2022-11-26T17:28:53.715Z,24.60
2022-11-26T17:31:25.459Z,12.80
2022-11-26T17:33:57.279Z,13.83
2022-11-26T17:36:35.301Z,14.67
2022-11-26T17:39:10.972Z,20.03
2022-11-26T17:41:42.654Z,17.17
2022-11-26T17:44:14.467Z,16.67
2022-11-26T17:47:15.329Z,20.70
2022-11-26T17:49:38.299Z,15.43
2022-11-26T17:52:10.139Z,15.10
2022-11-26T17:54:42.443Z,17.30
2022-11-26T17:57:15.993Z,22.10
2022-11-26T17:59:47.693Z,19.67
2022-11-26T18:02:19.557Z,15.53
2022-11-26T18:04:51.399Z,18.57
2022-11-26T18:07:23.222Z,16.73
2022-11-26T18:09:57.308Z,25.77
2022-11-26T18:12:29.149Z,26.33
2022-11-26T18:15:02.033Z,25.30
2022-11-26T18:17:34.253Z,21.43
2022-11-26T18:20:06.854Z,24.43
2022-11-26T18:22:38.551Z,24.73
2022-11-26T18:25:10.371Z,23.07
2022-11-26T18:27:42.238Z,24.07
2022-11-26T18:30:14.933Z,28.47
2022-11-26T18:32:47.121Z,35.10
2022-11-26T18:35:18.935Z,27.73
2022-11-26T18:37:51.139Z,25.13
2022-11-26T18:40:22.874Z,24.13
2022-11-26T18:42:54.633Z,23.33
2022-11-26T18:45:26.381Z,26.47
2022-11-26T18:47:58.157Z,23.13
2022-11-26T18:50:29.838Z,27.70
2022-11-26T18:53:01.553Z,32.57
2022-11-26T18:55:33.551Z,39.10
2022-11-26T18:58:08.076Z,34.23
2022-11-26T19:00:40.162Z,33.07
2022-11-26T19:03:13.297Z,28.57
2022-11-26T19:05:45.792Z,25.87
2022-11-26T19:08:18.205Z,34.80
2022-11-26T19:10:50.292Z,25.03
2022-11-26T19:13:22.191Z,29.00
2022-11-26T19:15:53.910Z,29.03
2022-11-26T19:18:25.573Z,31.67
2022-11-26T19:20:57.408Z,30.67
2022-11-26T19:23:29.555Z,28.53
2022-11-26T19:26:05.603Z,28.10
2022-11-26T19:28:37.384Z,23.53
2022-11-26T19:31:11.961Z,24.40
2022-11-26T19:33:46.311Z,26.60
2022-11-26T19:36:18.041Z,21.77
2022-11-26T19:38:55.225Z,28.27
2022-11-26T19:41:28.294Z,33.37
2022-11-26T19:44:01.213Z,21.77
2022-11-26T19:46:36.916Z,24.77
2022-11-26T19:49:11.865Z,20.13
2022-11-26T19:51:43.686Z,19.60
2022-11-26T19:54:15.437Z,29.25
2022-11-26T19:56:48.400Z,26.47
2022-11-26T19:59:20.460Z,26.87
2022-11-26T20:01:52.397Z,27.33
2022-11-26T20:04:27.417Z,25.23
2022-11-26T20:06:59.119Z,22.47
2022-11-26T20:09:30.854Z,29.80
2022-11-26T20:12:02.563Z,22.23
2022-11-26T20:14:34.230Z,24.73
2022-11-26T20:17:06.262Z,25.00
2022-11-26T20:19:38.504Z,22.80
2022-11-26T20:22:10.452Z,21.70
2022-11-26T20:24:42.229Z,29.80
2022-11-26T20:27:13.977Z,25.23
2022-11-26T20:29:45.619Z,26.97
2022-11-26T20:32:17.388Z,22.70
2022-11-26T20:34:49.150Z,24.03
2022-11-26T20:37:20.821Z,28.87
2022-11-26T20:39:52.549Z,29.80
2022-11-26T20:42:24.262Z,28.87
2022-11-26T20:44:56.158Z,26.60
2022-11-26T20:47:27.842Z,27.98
2022-11-26T20:49:59.634Z,30.33
2022-11-26T20:52:31.335Z,32.30
2022-11-26T20:55:03.934Z,23.73
2022-11-26T20:57:36.640Z,24.00
2022-11-26T21:00:08.990Z,27.83
2022-11-26T21:02:40.801Z,32.03
2022-11-26T21:05:14.243Z,25.40
2022-11-26T21:07:46.212Z,31.23
2022-11-26T21:10:18.189Z,30.70
2022-11-26T21:12:49.895Z,30.57
2022-11-26T21:15:23.021Z,35.43
2022-11-26T21:17:54.971Z,41.58
2022-11-26T21:20:27.503Z,43.13
2022-11-26T21:23:00.265Z,38.93
2022-11-26T21:25:32.045Z,40.73
2022-11-26T21:28:05.554Z,26.80
2022-11-26T21:30:38.306Z,32.67
2022-11-26T21:33:10.227Z,35.47
2022-11-26T21:35:41.945Z,35.33
2022-11-26T21:38:13.654Z,46.43
2022-11-26T21:40:45.342Z,46.60
2022-11-26T21:43:17.047Z,35.90
2022-11-26T21:45:48.863Z,35.03
2022-11-26T21:48:20.665Z,30.60
2022-11-26T21:50:52.382Z,42.37
2022-11-26T21:53:24.166Z,47.90
2022-11-26T21:55:56.079Z,59.70
2022-11-26T21:58:27.775Z,34.30
2022-11-26T22:00:59.506Z,34.83
2022-11-26T22:03:31.306Z,29.50
2022-11-26T22:06:02.982Z,29.07
2022-11-26T22:08:35.324Z,36.27
2022-11-26T22:11:19.103Z,30.67
2022-11-26T22:13:51.518Z,37.73
2022-11-26T22:16:25.063Z,39.33
2022-11-26T22:18:58.642Z,33.67
2022-11-26T22:21:35.156Z,44.93
2022-11-26T22:24:11.350Z,30.10
2022-11-26T22:26:44.149Z,35.37
2022-11-26T22:29:18.406Z,38.43
2022-11-26T22:31:50.449Z,30.45
2022-11-26T22:34:24.483Z,20.33
2022-11-26T22:36:56.201Z,24.43
2022-11-26T22:39:27.968Z,36.70
2022-11-26T22:41:59.812Z,25.03
2022-11-26T22:44:32.155Z,24.90
2022-11-26T22:47:03.952Z,38.53
2022-11-26T22:49:37.178Z,30.00
2022-11-26T22:52:09.092Z,31.70
2022-11-26T22:54:40.846Z,34.47
2022-11-26T22:57:12.694Z,36.97
2022-11-26T22:59:44.708Z,52.03
2022-11-26T23:02:16.460Z,49.92
2022-11-26T23:04:48.246Z,29.80
2022-11-26T23:07:20.189Z,52.17
2022-11-26T23:09:52.185Z,53.43
2022-11-26T23:12:23.925Z,40.90
2022-11-26T23:14:55.600Z,38.77
2022-11-26T23:17:27.248Z,40.73
2022-11-26T23:19:58.957Z,42.87
2022-11-26T23:22:30.729Z,26.60
2022-11-26T23:25:02.435Z,33.70
2022-11-26T23:27:34.189Z,28.33
2022-11-26T23:30:06.597Z,31.10
2022-11-26T23:32:39.386Z,29.00
2022-11-26T23:35:11.188Z,27.20
2022-11-26T23:37:42.926Z,26.00
2022-11-26T23:40:15.035Z,26.17
2022-11-26T23:42:46.731Z,31.13
2022-11-26T23:45:18.692Z,35.27
2022-11-26T23:47:50.497Z,27.27
2022-11-26T23:50:23.268Z,40.87
2022-11-26T23:52:55.056Z,28.17
2022-11-26T23:55:26.762Z,34.77
2022-11-26T23:57:58.527Z,26.23
